Buoy 41991

sailwx.info

Track history (hours):
 
Tides and Currents Weather Stations Pressure Air Temp Water Temp Dewpoint Dewpoint Depression Visibility Wind Speed Wind Dir Waves Ship Positions

Drifting buoy 41991

Last reported at 2016-Jul-02 01:41 UTC. Time now 2016-Jul-02 05:48 UTC.
Position N 27°39' W 048°50'.

Water temperature 26.4 ° C

Date/timePositionNaut miles runAvg speedWind from/ knotsBaromVisibWave heightAir tempDewpointWater temp
2016-Jul-02 01:41N 27°39' W 048°50'0 0.5 26.4
2016-Jul-02 00:50N 27°39' W 048°50'0 0.0 26.4
2016-Jul-02 00:07N 27°39' W 048°50'1 0.3 26.5
2016-Jul-01 21:35N 27°38' W 048°50'0 0.4 26.6
2016-Jul-01 20:58N 27°38' W 048°51'1 0.5 26.6
2016-Jul-01 19:54N 27°38' W 048°51'0 0.8 26.7
2016-Jul-01 19:25N 27°38' W 048°51'1 0.6 26.7
2016-Jul-01 18:19N 27°37' W 048°51'1 0.3 26.7
2016-Jul-01 16:39N 27°37' W 048°51'0 0.2 26.6
2016-Jul-01 14:31N 27°37' W 048°50'0 4.9 26.4
2016-Jul-01 14:27N 27°37' W 048°50'1 1.1 26.4
2016-Jul-01 13:39N 27°36' W 048°51'0 0.0 26.3
2016-Jul-01 12:51N 27°36' W 048°51'0 0.3 26.3
2016-Jul-01 11:52N 27°36' W 048°51'0 0.0 26.2
2016-Jul-01 11:24N 27°36' W 048°51'0 3.2 26.2
2016-Jul-01 11:18N 27°36' W 048°51'0 0.2 26.2
2016-Jul-01 09:58N 27°36' W 048°51'0 0.0 26.2
2016-Jul-01 09:40N 27°36' W 048°51'0 0.0 26.2
2016-Jul-01 09:37N 27°36' W 048°51'0 0.3 26.2
2016-Jul-01 08:36N 27°36' W 048°51'0 1.6 26.2
2016-Jul-01 08:25N 27°36' W 048°51'0 2.2 26.2
2016-Jul-01 08:16N 27°36' W 048°51'0 0.0 26.2
2016-Jul-01 08:00N 27°36' W 048°51'0 1.0 26.2
2016-Jul-01 07:55N 27°36' W 048°51'0 0.1
2016-Jul-01 06:54N 27°36' W 048°51'0 8.9 26.2
2016-Jul-01 06:51N 27°35' W 048°52'1 0.3 26.2
2016-Jul-01 05:09N 27°35' W 048°53'0 0.0 26.3
2016-Jul-01 01:17N 27°35' W 048°53'0 1.7 26.3
2016-Jul-01 01:10N 27°35' W 048°53'0 0.0 26.3
2016-Jul-01 00:29N 27°35' W 048°53'0 1.5 26.3
2016-Jul-01 00:22N 27°35' W 048°53'0 0.3 26.3
2016-Jun-30 23:37N 27°35' W 048°53'0 0.3 26.3
2016-Jun-30 22:51N 27°35' W 048°53'0 4.7 26.3
2016-Jun-30 22:46N 27°35' W 048°54'0 0.0 26.3
2016-Jun-30 21:54N 27°35' W 048°54'0 5.4 26.3
2016-Jun-30 21:52N 27°35' W 048°54'1 0.5 26.3
2016-Jun-30 20:21N 27°34' W 048°54'0 0.0 26.4
2016-Jun-30 19:35N 27°34' W 048°54'0 0.0 26.5
2016-Jun-30 18:29N 27°34' W 048°54'0 0.0 26.4
2016-Jun-30 14:01N 27°34' W 048°54'0 0.2 26.2
2016-Jun-30 13:15N 27°34' W 048°54'0 0.9 26.2
2016-Jun-30 13:08N 27°34' W 048°54'0 0.4 26.2
2016-Jun-30 12:09N 27°34' W 048°54'0 0.0 26.1
2016-Jun-30 11:35N 27°34' W 048°54'0 0.1 26.1
2016-Jun-30 10:45N 27°35' W 048°54'1 0.7 26.1
2016-Jun-30 09:53N 27°35' W 048°54'1 0.8 26.1
2016-Jun-30 08:55N 27°34' W 048°54'0 3.9 26.1
2016-Jun-30 08:49N 27°34' W 048°54'0 0.0 26.1
2016-Jun-30 07:08N 27°34' W 048°54'0 1.2 26.1
2016-Jun-30 07:02N 27°34' W 048°54'0 0.2 26.1
2016-Jun-30 05:22N 27°34' W 048°54'0 0.0 26.1
2016-Jun-30 01:38N 27°34' W 048°54'1 5.2 26.2
2016-Jun-30 01:31N 27°34' W 048°53'0 0.0 26.2
2016-Jun-30 00:48N 27°34' W 048°53'1 0.7 26.2
2016-Jun-29 23:58N 27°34' W 048°54'1 0.8 26.2
2016-Jun-29 23:20N 27°35' W 048°54'0 1.1 26.2
2016-Jun-29 23:10N 27°35' W 048°54'0 0.5 26.3
2016-Jun-29 23:01N 27°35' W 048°54'0 0.5 26.3
2016-Jun-29 22:20N 27°35' W 048°54'0 0.0 26.3
2016-Jun-29 21:46N 27°35' W 048°54'1 2.4 26.3
2016-Jun-29 21:30N 27°35' W 048°54'0 0.0 26.3
2016-Jun-29 21:26N 27°35' W 048°54'0 0.6 26.3
2016-Jun-29 20:45N 27°35' W 048°55'0 2.9 26.3
2016-Jun-29 20:40N 27°35' W 048°55'0 7.3 26.3
2016-Jun-29 20:38N 27°35' W 048°55'0 0.0 26.3
2016-Jun-29 20:02N 27°35' W 048°55'0 0.5 26.3
2016-Jun-29 19:46N 27°35' W 048°55'1 0.8 26.3
2016-Jun-29 18:58N 27°34' W 048°55'0 0.2 26.4
2016-Jun-29 18:42N 27°34' W 048°55'1 0.5 26.4
2016-Jun-29 17:04N 27°34' W 048°55'0 0.0 26.4
2016-Jun-29 16:59N 27°34' W 048°55'1 9.2 26.4
2016-Jun-29 16:53N 27°33' W 048°55'0 0.0 26.4
2016-Jun-29 14:22N 27°33' W 048°55'0 2.5 26.2
2016-Jun-29 14:16N 27°33' W 048°55'0 0.0 26.2
2016-Jun-29 13:35N 27°33' W 048°55'0 0.1 26.2
2016-Jun-29 11:06N 27°32' W 048°55'0 0.4 26.1
2016-Jun-29 10:00N 27°32' W 048°55'0 0.2 26.1
2016-Jun-29 09:26N 27°32' W 048°55'1 0.3 26.1
2016-Jun-29 07:46N 27°32' W 048°54'0 0.0 26.1
2016-Jun-29 07:23N 27°32' W 048°54'0 1.6 26.1
2016-Jun-29 07:16N 27°32' W 048°54'0 0.1 26.1
2016-Jun-29 01:56N 27°32' W 048°54'0 5.9 26.2
2016-Jun-29 01:51N 27°32' W 048°54'0 0.1 26.2
2016-Jun-29 01:08N 27°32' W 048°54'0 2.1 26.2
2016-Jun-29 01:01N 27°32' W 048°54'0 0.2 26.2
2016-Jun-28 23:28N 27°33' W 048°54'0 5.3
2016-Jun-28 23:25N 27°32' W 048°54'1 0.9 26.2
2016-Jun-28 22:46N 27°33' W 048°54'0 0.0 26.2
2016-Jun-28 22:35N 27°33' W 048°54'0 0.5
2016-Jun-28 21:40N 27°33' W 048°54'1 1.0 26.3
2016-Jun-28 21:02N 27°33' W 048°55'0 0.3 26.3
2016-Jun-28 19:54N 27°34' W 048°55'1 1.6 26.3
2016-Jun-28 19:29N 27°34' W 048°56'0 0.4 26.3
2016-Jun-28 18:54N 27°33' W 048°56'1 0.6 26.3
2016-Jun-28 17:16N 27°33' W 048°57'1 8.1 26.3
2016-Jun-28 17:07N 27°32' W 048°57'0 0.1 26.3
2016-Jun-28 14:39N 27°32' W 048°57'2 0.3 26.2
2016-Jun-28 07:34N 27°30' W 048°56'0 3.9 26.2
2016-Jun-28 07:29N 27°30' W 048°55'0 0.2 26.2
2016-Jun-28 05:49N 27°30' W 048°56'1 0.3 26.3
2016-Jun-28 02:17N 27°31' W 048°56'0 0.8 26.3
2016-Jun-28 02:13N 27°31' W 048°55'0 0.1 26.3
2016-Jun-28 01:23N 27°31' W 048°56'0 0.4 26.3
2016-Jun-28 00:32N 27°31' W 048°56'0 0.0 26.3
2016-Jun-27 23:51N 27°31' W 048°56'0 0.1 26.4
2016-Jun-27 22:57N 27°32' W 048°56'0 0.8 26.4
2016-Jun-27 22:48N 27°31' W 048°56'0 2.4 26.4
2016-Jun-27 22:41N 27°32' W 048°57'0 0.1 26.4
2016-Jun-27 21:51N 27°32' W 048°57'0 1.0 26.4
2016-Jun-27 21:33N 27°32' W 048°57'0 1.0 26.5
2016-Jun-27 21:26N 27°32' W 048°57'1 0.6 26.5
2016-Jun-27 19:53N 27°31' W 048°58'0 0.0 26.5
2016-Jun-27 19:03N 27°31' W 048°58'0 0.2 26.5
2016-Jun-27 17:24N 27°31' W 048°58'0 0.0 26.5
2016-Jun-27 17:22N 27°31' W 048°58'119.9 26.4
2016-Jun-27 17:18N 27°30' W 048°58'1 0.3 26.4
2016-Jun-27 14:59N 27°30' W 048°58'0 0.0 26.3
2016-Jun-27 14:15N 27°30' W 048°58'0 0.4 26.3
2016-Jun-27 14:07N 27°30' W 048°58'0 0.2 26.3
2016-Jun-27 13:23N 27°30' W 048°59'0 0.2 26.3
2016-Jun-27 12:35N 27°30' W 048°59'0 0.3 26.2
2016-Jun-27 11:38N 27°30' W 048°59'1 0.8 26.2
2016-Jun-27 10:33N 27°29' W 048°59'0 1.0 26.2
2016-Jun-27 10:23N 27°29' W 048°59'0 0.2 26.2
2016-Jun-27 08:46N 27°29' W 048°59'0 1.2 26.2
2016-Jun-27 08:43N 27°29' W 048°59'0 0.0 26.2
2016-Jun-27 08:38N 27°29' W 048°59'0 0.2 26.2
2016-Jun-27 07:46N 27°29' W 048°59'0 2.9 26.2
2016-Jun-27 07:40N 27°30' W 048°59'0 0.3 26.2
2016-Jun-27 07:08N 27°30' W 048°59'0 0.4 26.2
2016-Jun-27 06:01N 27°30' W 048°59'0 2.0 26.2
2016-Jun-27 05:53N 27°30' W 048°59'0 0.0 26.2
2016-Jun-27 04:21N 27°30' W 048°59'0 0.1 26.2
2016-Jun-27 00:08N 27°30' W 048°59'0 0.3 26.3
2016-Jun-26 23:16N 27°30' W 048°59'0 0.2 26.3
2016-Jun-26 22:03N 27°30' W 048°59'0 3.2 26.4
2016-Jun-26 21:59N 27°30' W 048°59'117.9 26.4
2016-Jun-26 21:57N 27°31' W 048°60'0 0.0 26.4
2016-Jun-26 20:23N 27°31' W 048°60'0 0.4 26.4
2016-Jun-26 19:15N 27°31' W 048°59'2 1.0 26.4
2016-Jun-26 17:37N 27°30' W 049°01'0 0.1 26.4
2016-Jun-26 15:54N 27°30' W 049°01'0 0.0
2016-Jun-26 14:35N 27°30' W 049°01'0 6.0 26.2
2016-Jun-26 14:30N 27°30' W 049°01'0 0.0 26.2
2016-Jun-26 13:43N 27°30' W 049°01'0 0.2 26.2
2016-Jun-26 12:48N 27°30' W 049°01'1 0.7 26.1
2016-Jun-26 11:55N 27°29' W 049°01'0 0.1 26.1
2016-Jun-26 10:45N 27°29' W 049°02'0 3.6 26.1
2016-Jun-26 10:38N 27°29' W 049°02'0 0.0 26.1
2016-Jun-26 09:19N 27°29' W 049°01'0 0.2 26.1
2016-Jun-26 07:54N 27°29' W 049°01'0 1.0 26.1
2016-Jun-26 07:40N 27°29' W 049°01'1 0.1 26.2
2016-Jun-26 01:20N 27°30' W 049°01'0 2.8 26.2
2016-Jun-26 01:13N 27°30' W 049°01'0 0.3 26.2
2016-Jun-25 23:40N 27°30' W 049°01'0 0.3 26.3
2016-Jun-25 22:21N 27°30' W 049°01'1 0.3 26.4
2016-Jun-25 20:45N 27°30' W 049°02'0 3.8 26.5
2016-Jun-25 20:40N 27°30' W 049°01'0 3.7
2016-Jun-25 20:36N 27°30' W 049°01'0 2.6 26.4
2016-Jun-25 20:27N 27°30' W 049°02'0 0.4 26.4
2016-Jun-25 19:27N 27°30' W 049°02'1 2.0 26.3
2016-Jun-25 19:03N 27°29' W 049°02'0 0.0 26.3
2016-Jun-25 18:51N 27°29' W 049°02'0 0.0 26.3
2016-Jun-25 17:49N 27°29' W 049°02'0 0.0 26.3
2016-Jun-25 16:07N 27°29' W 049°02'1 0.4 26.3
2016-Jun-25 14:06N 27°29' W 049°03'1 0.7 26.2
2016-Jun-25 13:09N 27°29' W 049°03'0 9.6 26.2
2016-Jun-25 13:07N 27°28' W 049°03'0 0.4 26.2
2016-Jun-25 12:15N 27°28' W 049°03'0 0.4 26.2
2016-Jun-25 11:09N 27°28' W 049°04'0 3.9 26.2
2016-Jun-25 11:04N 27°28' W 049°03'0 0.0 26.2
2016-Jun-25 10:55N 27°28' W 049°03'0 1.7 26.2
2016-Jun-25 10:49N 27°28' W 049°03'1 0.5 26.2
2016-Jun-25 09:45N 27°27' W 049°03'0 0.0 26.2
2016-Jun-25 09:33N 27°27' W 049°03'0 0.0 26.2
2016-Jun-25 09:26N 27°27' W 049°03'0 0.1 26.2
2016-Jun-25 08:05N 27°27' W 049°03'0 1.4 26.2
2016-Jun-25 07:49N 27°27' W 049°02'1 0.4 26.2
2016-Jun-25 06:29N 27°27' W 049°02'1 0.2 26.2
2016-Jun-25 01:40N 27°28' W 049°01'0 3.4 26.3
2016-Jun-25 01:33N 27°28' W 049°01'1 0.3 26.3
2016-Jun-24 23:09N 27°29' W 049°01'0 0.2 26.4
2016-Jun-24 22:45N 27°29' W 049°01'0 0.0 26.4
2016-Jun-24 22:42N 27°29' W 049°01'0 1.8 26.4
2016-Jun-24 22:35N 27°29' W 049°01'0 0.9 26.4
2016-Jun-24 22:24N 27°29' W 049°01'0 0.4 26.4
2016-Jun-24 21:09N 27°29' W 049°02'1 1.5 26.4
2016-Jun-24 20:48N 27°29' W 049°02'1 0.9 26.4
2016-Jun-24 19:36N 27°29' W 049°03'1 6.9 26.4
2016-Jun-24 19:29N 27°29' W 049°02'1 9.6 26.4
2016-Jun-24 19:24N 27°29' W 049°03'0 0.0 26.4
2016-Jun-24 17:55N 27°29' W 049°03'2 0.6
2016-Jun-24 14:21N 27°28' W 049°05'1 0.8 26.3
2016-Jun-24 13:36N 27°28' W 049°05'0 0.5 26.3
2016-Jun-24 12:43N 27°27' W 049°05'0 0.3 26.3
2016-Jun-24 11:53N 27°27' W 049°05'1 0.7 26.2
2016-Jun-24 11:01N 27°27' W 049°04'1 2.0 26.3
2016-Jun-24 10:24N 27°26' W 049°05'1 6.8 26.2
2016-Jun-24 10:18N 27°26' W 049°04'0 0.2 26.2
2016-Jun-24 08:45N 27°26' W 049°05'0 0.5 26.3
2016-Jun-24 08:38N 27°26' W 049°05'0 0.6 26.3
2016-Jun-24 08:15N 27°25' W 049°04'1 2.0 26.3
2016-Jun-24 07:41N 27°25' W 049°03'0 0.0 26.4
2016-Jun-24 07:02N 27°25' W 049°03'0 0.0 26.4
2016-Jun-24 06:35N 27°25' W 049°03'2 0.3 26.5
2016-Jun-24 02:01N 27°27' W 049°04'0 1.6 26.7
2016-Jun-24 01:52N 27°26' W 049°04'0 0.0
2016-Jun-24 01:09N 27°26' W 049°04'0 7.2 26.6
2016-Jun-24 01:07N 27°27' W 049°05'0 0.0 26.6
2016-Jun-24 00:23N 27°27' W 049°05'0 0.2 26.6
2016-Jun-23 23:29N 27°27' W 049°05'0 0.8 26.6
2016-Jun-23 23:08N 27°27' W 049°04'1 1.5 26.7
2016-Jun-23 22:36N 27°27' W 049°05'1 0.9 26.7
2016-Jun-23 21:33N 27°28' W 049°06'0 0.6 26.9
2016-Jun-23 20:54N 27°28' W 049°06'1 0.5 27.0
2016-Jun-23 19:55N 27°28' W 049°06'0 0.6 27.0
2016-Jun-23 19:16N 27°28' W 049°06'1 0.4 27.2
2016-Jun-23 16:25N 27°29' W 049°07'1 0.8 26.6
2016-Jun-23 14:39N 27°29' W 049°09'0 0.1
2016-Jun-23 13:55N 27°29' W 049°09'0 0.2 26.4
2016-Jun-23 13:05N 27°29' W 049°09'0 0.2 26.3
2016-Jun-23 12:11N 27°29' W 049°09'1 0.6 26.2
2016-Jun-23 11:14N 27°29' W 049°10'0 3.7 26.2
2016-Jun-23 11:07N 27°28' W 049°10'0 0.0 26.2
2016-Jun-23 10:53N 27°28' W 049°10'0 0.0 26.2
2016-Jun-23 10:19N 27°28' W 049°10'0 0.4 26.2
2016-Jun-23 09:38N 27°28' W 049°09'0 0.0 26.2
2016-Jun-23 09:33N 27°28' W 049°09'0 0.9 26.2
2016-Jun-23 09:17N 27°28' W 049°09'0 0.9 26.2
2016-Jun-23 09:13N 27°28' W 049°09'0 0.2 26.2
2016-Jun-23 08:37N 27°28' W 049°09'0 0.3 26.2
2016-Jun-23 07:49N 27°28' W 049°09'0 1.5 26.2
2016-Jun-23 07:37N 27°28' W 049°09'0 0.4 26.2
2016-Jun-23 06:50N 27°28' W 049°09'2 0.4 26.2
2016-Jun-23 02:18N 27°30' W 049°08'0 0.2 26.2
2016-Jun-23 01:28N 27°30' W 049°08'0 0.7 26.2
2016-Jun-23 00:43N 27°30' W 049°08'0 0.0 26.2
2016-Jun-23 00:39N 27°30' W 049°08'1 0.6 26.2
2016-Jun-22 23:01N 27°31' W 049°09'0 3.5 26.2
2016-Jun-22 22:54N 27°31' W 049°08'0 0.0
2016-Jun-22 22:45N 27°31' W 049°08'0 0.3 26.3
2016-Jun-22 21:09N 27°31' W 049°08'0 4.8 26.3
2016-Jun-22 21:07N 27°31' W 049°08'1 1.2 26.3
2016-Jun-22 20:19N 27°31' W 049°09'013.3 26.3
2016-Jun-22 20:17N 27°31' W 049°10'0 0.0 26.3
2016-Jun-22 19:27N 27°31' W 049°10'1 0.8 26.4
2016-Jun-22 18:16N 27°31' W 049°09'0 0.0 26.4
2016-Jun-22 16:42N 27°31' W 049°09'1 0.3 26.4
2016-Jun-22 15:00N 27°31' W 049°08'0 0.0 26.3
2016-Jun-22 14:19N 27°31' W 049°08'0 0.0 26.2
2016-Jun-22 14:14N 27°31' W 049°08'1 0.7 26.3
2016-Jun-22 13:25N 27°31' W 049°09'0 0.4 26.2
2016-Jun-22 12:28N 27°31' W 049°08'0 0.1 26.2
2016-Jun-22 11:26N 27°31' W 049°08'0 0.1 26.2
2016-Jun-22 10:43N 27°31' W 049°08'1 0.5 26.2
2016-Jun-22 09:44N 27°31' W 049°08'0 2.9 26.2
2016-Jun-22 09:39N 27°30' W 049°08'0 0.0 26.2
2016-Jun-22 08:54N 27°30' W 049°08'0 0.0 26.2
2016-Jun-22 08:08N 27°30' W 049°08'0 0.2 26.2
2016-Jun-22 07:00N 27°31' W 049°07'0 3.1 26.2
2016-Jun-22 06:53N 27°31' W 049°07'1 0.2 26.2
2016-Jun-22 01:52N 27°32' W 049°06'0 3.7 26.2
2016-Jun-22 01:48N 27°32' W 049°06'   26.2
Track history (hours):
 
Tides and Currents Weather Stations Pressure Air Temp Water Temp Dewpoint Dewpoint Depression Visibility Wind Speed Wind Dir Waves Ship Positions

Drifting buoy 41991

Last reported at 2016-Jul-02 01:41 UTC. Time now 2016-Jul-02 05:48 UTC.
Position N 27°39' W 048°50'.

Water temperature 26.4 ° C

Date/timePositionNaut miles runAvg speedWind from/ knotsBaromVisibWave heightAir tempDewpointWater temp
2016-Jul-02 01:41N 27°39' W 048°50'0 0.5 26.4
2016-Jul-02 00:50N 27°39' W 048°50'0 0.0 26.4
2016-Jul-02 00:07N 27°39' W 048°50'1 0.3 26.5
2016-Jul-01 21:35N 27°38' W 048°50'0 0.4 26.6
2016-Jul-01 20:58N 27°38' W 048°51'1 0.5 26.6
2016-Jul-01 19:54N 27°38' W 048°51'0 0.8 26.7
2016-Jul-01 19:25N 27°38' W 048°51'1 0.6 26.7
2016-Jul-01 18:19N 27°37' W 048°51'1 0.3 26.7
2016-Jul-01 16:39N 27°37' W 048°51'0 0.2 26.6
2016-Jul-01 14:31N 27°37' W 048°50'0 4.9 26.4
2016-Jul-01 14:27N 27°37' W 048°50'1 1.1 26.4
2016-Jul-01 13:39N 27°36' W 048°51'0 0.0 26.3
2016-Jul-01 12:51N 27°36' W 048°51'0 0.3 26.3
2016-Jul-01 11:52N 27°36' W 048°51'0 0.0 26.2
2016-Jul-01 11:24N 27°36' W 048°51'0 3.2 26.2
2016-Jul-01 11:18N 27°36' W 048°51'0 0.2 26.2
2016-Jul-01 09:58N 27°36' W 048°51'0 0.0 26.2
2016-Jul-01 09:40N 27°36' W 048°51'0 0.0 26.2
2016-Jul-01 09:37N 27°36' W 048°51'0 0.3 26.2
2016-Jul-01 08:36N 27°36' W 048°51'0 1.6 26.2
2016-Jul-01 08:25N 27°36' W 048°51'0 2.2 26.2
2016-Jul-01 08:16N 27°36' W 048°51'0 0.0 26.2
2016-Jul-01 08:00N 27°36' W 048°51'0 1.0 26.2
2016-Jul-01 07:55N 27°36' W 048°51'0 0.1
2016-Jul-01 06:54N 27°36' W 048°51'0 8.9 26.2
2016-Jul-01 06:51N 27°35' W 048°52'1 0.3 26.2
2016-Jul-01 05:09N 27°35' W 048°53'0 0.0 26.3
2016-Jul-01 01:17N 27°35' W 048°53'0 1.7 26.3
2016-Jul-01 01:10N 27°35' W 048°53'0 0.0 26.3
2016-Jul-01 00:29N 27°35' W 048°53'0 1.5 26.3
2016-Jul-01 00:22N 27°35' W 048°53'0 0.3 26.3
2016-Jun-30 23:37N 27°35' W 048°53'0 0.3 26.3
2016-Jun-30 22:51N 27°35' W 048°53'0 4.7 26.3
2016-Jun-30 22:46N 27°35' W 048°54'0 0.0 26.3
2016-Jun-30 21:54N 27°35' W 048°54'0 5.4 26.3
2016-Jun-30 21:52N 27°35' W 048°54'1 0.5 26.3
2016-Jun-30 20:21N 27°34' W 048°54'0 0.0 26.4
2016-Jun-30 19:35N 27°34' W 048°54'0 0.0 26.5
2016-Jun-30 18:29N 27°34' W 048°54'0 0.0 26.4
2016-Jun-30 14:01N 27°34' W 048°54'0 0.2 26.2
2016-Jun-30 13:15N 27°34' W 048°54'0 0.9 26.2
2016-Jun-30 13:08N 27°34' W 048°54'0 0.4 26.2
2016-Jun-30 12:09N 27°34' W 048°54'0 0.0 26.1
2016-Jun-30 11:35N 27°34' W 048°54'0 0.1 26.1
2016-Jun-30 10:45N 27°35' W 048°54'1 0.7 26.1
2016-Jun-30 09:53N 27°35' W 048°54'1 0.8 26.1
2016-Jun-30 08:55N 27°34' W 048°54'0 3.9 26.1
2016-Jun-30 08:49N 27°34' W 048°54'0 0.0 26.1
2016-Jun-30 07:08N 27°34' W 048°54'0 1.2 26.1
2016-Jun-30 07:02N 27°34' W 048°54'0 0.2 26.1
2016-Jun-30 05:22N 27°34' W 048°54'0 0.0 26.1
2016-Jun-30 01:38N 27°34' W 048°54'1 5.2 26.2
2016-Jun-30 01:31N 27°34' W 048°53'0 0.0 26.2
2016-Jun-30 00:48N 27°34' W 048°53'1 0.7 26.2
2016-Jun-29 23:58N 27°34' W 048°54'1 0.8 26.2
2016-Jun-29 23:20N 27°35' W 048°54'0 1.1 26.2
2016-Jun-29 23:10N 27°35' W 048°54'0 0.5 26.3
2016-Jun-29 23:01N 27°35' W 048°54'0 0.5 26.3
2016-Jun-29 22:20N 27°35' W 048°54'0 0.0 26.3
2016-Jun-29 21:46N 27°35' W 048°54'1 2.4 26.3
2016-Jun-29 21:30N 27°35' W 048°54'0 0.0 26.3
2016-Jun-29 21:26N 27°35' W 048°54'0 0.6 26.3
2016-Jun-29 20:45N 27°35' W 048°55'0 2.9 26.3
2016-Jun-29 20:40N 27°35' W 048°55'0 7.3 26.3
2016-Jun-29 20:38N 27°35' W 048°55'0 0.0 26.3
2016-Jun-29 20:02N 27°35' W 048°55'0 0.5 26.3
2016-Jun-29 19:46N 27°35' W 048°55'1 0.8 26.3
2016-Jun-29 18:58N 27°34' W 048°55'0 0.2 26.4
2016-Jun-29 18:42N 27°34' W 048°55'1 0.5 26.4
2016-Jun-29 17:04N 27°34' W 048°55'0 0.0 26.4
2016-Jun-29 16:59N 27°34' W 048°55'1 9.2 26.4
2016-Jun-29 16:53N 27°33' W 048°55'0 0.0 26.4
2016-Jun-29 14:22N 27°33' W 048°55'0 2.5 26.2
2016-Jun-29 14:16N 27°33' W 048°55'0 0.0 26.2
2016-Jun-29 13:35N 27°33' W 048°55'0 0.1 26.2
2016-Jun-29 11:06N 27°32' W 048°55'0 0.4 26.1
2016-Jun-29 10:00N 27°32' W 048°55'0 0.2 26.1
2016-Jun-29 09:26N 27°32' W 048°55'1 0.3 26.1
2016-Jun-29 07:46N 27°32' W 048°54'0 0.0 26.1
2016-Jun-29 07:23N 27°32' W 048°54'0 1.6 26.1
2016-Jun-29 07:16N 27°32' W 048°54'0 0.1 26.1
2016-Jun-29 01:56N 27°32' W 048°54'0 5.9 26.2
2016-Jun-29 01:51N 27°32' W 048°54'0 0.1 26.2
2016-Jun-29 01:08N 27°32' W 048°54'0 2.1 26.2
2016-Jun-29 01:01N 27°32' W 048°54'0 0.2 26.2
2016-Jun-28 23:28N 27°33' W 048°54'0 5.3
2016-Jun-28 23:25N 27°32' W 048°54'1 0.9 26.2
2016-Jun-28 22:46N 27°33' W 048°54'0 0.0 26.2
2016-Jun-28 22:35N 27°33' W 048°54'0 0.5
2016-Jun-28 21:40N 27°33' W 048°54'1 1.0 26.3
2016-Jun-28 21:02N 27°33' W 048°55'0 0.3 26.3
2016-Jun-28 19:54N 27°34' W 048°55'1 1.6 26.3
2016-Jun-28 19:29N 27°34' W 048°56'0 0.4 26.3
2016-Jun-28 18:54N 27°33' W 048°56'1 0.6 26.3
2016-Jun-28 17:16N 27°33' W 048°57'1 8.1 26.3
2016-Jun-28 17:07N 27°32' W 048°57'0 0.1 26.3
2016-Jun-28 14:39N 27°32' W 048°57'2 0.3 26.2
2016-Jun-28 07:34N 27°30' W 048°56'0 3.9 26.2
2016-Jun-28 07:29N 27°30' W 048°55'0 0.2 26.2
2016-Jun-28 05:49N 27°30' W 048°56'1 0.3 26.3
2016-Jun-28 02:17N 27°31' W 048°56'0 0.8 26.3
2016-Jun-28 02:13N 27°31' W 048°55'0 0.1 26.3
2016-Jun-28 01:23N 27°31' W 048°56'0 0.4 26.3
2016-Jun-28 00:32N 27°31' W 048°56'0 0.0 26.3
2016-Jun-27 23:51N 27°31' W 048°56'0 0.1 26.4
2016-Jun-27 22:57N 27°32' W 048°56'0 0.8 26.4
2016-Jun-27 22:48N 27°31' W 048°56'0 2.4 26.4
2016-Jun-27 22:41N 27°32' W 048°57'0 0.1 26.4
2016-Jun-27 21:51N 27°32' W 048°57'0 1.0 26.4
2016-Jun-27 21:33N 27°32' W 048°57'0 1.0 26.5
2016-Jun-27 21:26N 27°32' W 048°57'1 0.6 26.5
2016-Jun-27 19:53N 27°31' W 048°58'0 0.0 26.5
2016-Jun-27 19:03N 27°31' W 048°58'0 0.2 26.5
2016-Jun-27 17:24N 27°31' W 048°58'0 0.0 26.5
2016-Jun-27 17:22N 27°31' W 048°58'119.9 26.4
2016-Jun-27 17:18N 27°30' W 048°58'1 0.3 26.4
2016-Jun-27 14:59N 27°30' W 048°58'0 0.0 26.3
2016-Jun-27 14:15N 27°30' W 048°58'0 0.4 26.3
2016-Jun-27 14:07N 27°30' W 048°58'0 0.2 26.3
2016-Jun-27 13:23N 27°30' W 048°59'0 0.2 26.3
2016-Jun-27 12:35N 27°30' W 048°59'0 0.3 26.2
2016-Jun-27 11:38N 27°30' W 048°59'1 0.8 26.2
2016-Jun-27 10:33N 27°29' W 048°59'0 1.0 26.2
2016-Jun-27 10:23N 27°29' W 048°59'0 0.2 26.2
2016-Jun-27 08:46N 27°29' W 048°59'0 1.2 26.2
2016-Jun-27 08:43N 27°29' W 048°59'0 0.0 26.2
2016-Jun-27 08:38N 27°29' W 048°59'0 0.2 26.2
2016-Jun-27 07:46N 27°29' W 048°59'0 2.9 26.2
2016-Jun-27 07:40N 27°30' W 048°59'0 0.3 26.2
2016-Jun-27 07:08N 27°30' W 048°59'0 0.4 26.2
2016-Jun-27 06:01N 27°30' W 048°59'0 2.0 26.2
2016-Jun-27 05:53N 27°30' W 048°59'0 0.0 26.2
2016-Jun-27 04:21N 27°30' W 048°59'0 0.1 26.2
2016-Jun-27 00:08N 27°30' W 048°59'0 0.3 26.3
2016-Jun-26 23:16N 27°30' W 048°59'0 0.2 26.3
2016-Jun-26 22:03N 27°30' W 048°59'0 3.2 26.4
2016-Jun-26 21:59N 27°30' W 048°59'117.9 26.4
2016-Jun-26 21:57N 27°31' W 048°60'0 0.0 26.4
2016-Jun-26 20:23N 27°31' W 048°60'0 0.4 26.4
2016-Jun-26 19:15N 27°31' W 048°59'2 1.0 26.4
2016-Jun-26 17:37N 27°30' W 049°01'0 0.1 26.4
2016-Jun-26 15:54N 27°30' W 049°01'0 0.0
2016-Jun-26 14:35N 27°30' W 049°01'0 6.0 26.2
2016-Jun-26 14:30N 27°30' W 049°01'0 0.0 26.2
2016-Jun-26 13:43N 27°30' W 049°01'0 0.2 26.2
2016-Jun-26 12:48N 27°30' W 049°01'1 0.7 26.1
2016-Jun-26 11:55N 27°29' W 049°01'0 0.1 26.1
2016-Jun-26 10:45N 27°29' W 049°02'0 3.6 26.1
2016-Jun-26 10:38N 27°29' W 049°02'0 0.0 26.1
2016-Jun-26 09:19N 27°29' W 049°01'0 0.2 26.1
2016-Jun-26 07:54N 27°29' W 049°01'0 1.0 26.1
2016-Jun-26 07:40N 27°29' W 049°01'1 0.1 26.2
2016-Jun-26 01:20N 27°30' W 049°01'0 2.8 26.2
2016-Jun-26 01:13N 27°30' W 049°01'0 0.3 26.2
2016-Jun-25 23:40N 27°30' W 049°01'0 0.3 26.3
2016-Jun-25 22:21N 27°30' W 049°01'1 0.3 26.4
2016-Jun-25 20:45N 27°30' W 049°02'0 3.8 26.5
2016-Jun-25 20:40N 27°30' W 049°01'0 3.7
2016-Jun-25 20:36N 27°30' W 049°01'0 2.6 26.4
2016-Jun-25 20:27N 27°30' W 049°02'0 0.4 26.4
2016-Jun-25 19:27N 27°30' W 049°02'1 2.0 26.3
2016-Jun-25 19:03N 27°29' W 049°02'0 0.0 26.3
2016-Jun-25 18:51N 27°29' W 049°02'0 0.0 26.3
2016-Jun-25 17:49N 27°29' W 049°02'0 0.0 26.3
2016-Jun-25 16:07N 27°29' W 049°02'1 0.4 26.3
2016-Jun-25 14:06N 27°29' W 049°03'1 0.7 26.2
2016-Jun-25 13:09N 27°29' W 049°03'0 9.6 26.2
2016-Jun-25 13:07N 27°28' W 049°03'0 0.4 26.2
2016-Jun-25 12:15N 27°28' W 049°03'0 0.4 26.2
2016-Jun-25 11:09N 27°28' W 049°04'0 3.9 26.2
2016-Jun-25 11:04N 27°28' W 049°03'0 0.0 26.2
2016-Jun-25 10:55N 27°28' W 049°03'0 1.7 26.2
2016-Jun-25 10:49N 27°28' W 049°03'1 0.5 26.2
2016-Jun-25 09:45N 27°27' W 049°03'0 0.0 26.2
2016-Jun-25 09:33N 27°27' W 049°03'0 0.0 26.2
2016-Jun-25 09:26N 27°27' W 049°03'0 0.1 26.2
2016-Jun-25 08:05N 27°27' W 049°03'0 1.4 26.2
2016-Jun-25 07:49N 27°27' W 049°02'1 0.4 26.2
2016-Jun-25 06:29N 27°27' W 049°02'1 0.2 26.2
2016-Jun-25 01:40N 27°28' W 049°01'0 3.4 26.3
2016-Jun-25 01:33N 27°28' W 049°01'1 0.3 26.3
2016-Jun-24 23:09N 27°29' W 049°01'0 0.2 26.4
2016-Jun-24 22:45N 27°29' W 049°01'0 0.0 26.4
2016-Jun-24 22:42N 27°29' W 049°01'0 1.8 26.4
2016-Jun-24 22:35N 27°29' W 049°01'0 0.9 26.4
2016-Jun-24 22:24N 27°29' W 049°01'0 0.4 26.4
2016-Jun-24 21:09N 27°29' W 049°02'1 1.5 26.4
2016-Jun-24 20:48N 27°29' W 049°02'1 0.9 26.4
2016-Jun-24 19:36N 27°29' W 049°03'1 6.9 26.4
2016-Jun-24 19:29N 27°29' W 049°02'1 9.6 26.4
2016-Jun-24 19:24N 27°29' W 049°03'0 0.0 26.4
2016-Jun-24 17:55N 27°29' W 049°03'2 0.6
2016-Jun-24 14:21N 27°28' W 049°05'1 0.8 26.3
2016-Jun-24 13:36N 27°28' W 049°05'0 0.5 26.3
2016-Jun-24 12:43N 27°27' W 049°05'0 0.3 26.3
2016-Jun-24 11:53N 27°27' W 049°05'1 0.7 26.2
2016-Jun-24 11:01N 27°27' W 049°04'1 2.0 26.3
2016-Jun-24 10:24N 27°26' W 049°05'1 6.8 26.2
2016-Jun-24 10:18N 27°26' W 049°04'0 0.2 26.2
2016-Jun-24 08:45N 27°26' W 049°05'0 0.5 26.3
2016-Jun-24 08:38N 27°26' W 049°05'0 0.6 26.3
2016-Jun-24 08:15N 27°25' W 049°04'1 2.0 26.3
2016-Jun-24 07:41N 27°25' W 049°03'0 0.0 26.4
2016-Jun-24 07:02N 27°25' W 049°03'0 0.0 26.4
2016-Jun-24 06:35N 27°25' W 049°03'2 0.3 26.5
2016-Jun-24 02:01N 27°27' W 049°04'0 1.6 26.7
2016-Jun-24 01:52N 27°26' W 049°04'0 0.0
2016-Jun-24 01:09N 27°26' W 049°04'0 7.2 26.6
2016-Jun-24 01:07N 27°27' W 049°05'0 0.0 26.6
2016-Jun-24 00:23N 27°27' W 049°05'0 0.2 26.6
2016-Jun-23 23:29N 27°27' W 049°05'0 0.8 26.6
2016-Jun-23 23:08N 27°27' W 049°04'1 1.5 26.7
2016-Jun-23 22:36N 27°27' W 049°05'1 0.9 26.7
2016-Jun-23 21:33N 27°28' W 049°06'0 0.6 26.9
2016-Jun-23 20:54N 27°28' W 049°06'1 0.5 27.0
2016-Jun-23 19:55N 27°28' W 049°06'0 0.6 27.0
2016-Jun-23 19:16N 27°28' W 049°06'1 0.4 27.2
2016-Jun-23 16:25N 27°29' W 049°07'1 0.8 26.6
2016-Jun-23 14:39N 27°29' W 049°09'0 0.1
2016-Jun-23 13:55N 27°29' W 049°09'0 0.2 26.4
2016-Jun-23 13:05N 27°29' W 049°09'0 0.2 26.3
2016-Jun-23 12:11N 27°29' W 049°09'1 0.6 26.2
2016-Jun-23 11:14N 27°29' W 049°10'0 3.7 26.2
2016-Jun-23 11:07N 27°28' W 049°10'0 0.0 26.2
2016-Jun-23 10:53N 27°28' W 049°10'0 0.0 26.2
2016-Jun-23 10:19N 27°28' W 049°10'0 0.4 26.2
2016-Jun-23 09:38N 27°28' W 049°09'0 0.0 26.2
2016-Jun-23 09:33N 27°28' W 049°09'0 0.9 26.2
2016-Jun-23 09:17N 27°28' W 049°09'0 0.9 26.2
2016-Jun-23 09:13N 27°28' W 049°09'0 0.2 26.2
2016-Jun-23 08:37N 27°28' W 049°09'0 0.3 26.2
2016-Jun-23 07:49N 27°28' W 049°09'0 1.5 26.2
2016-Jun-23 07:37N 27°28' W 049°09'0 0.4 26.2
2016-Jun-23 06:50N 27°28' W 049°09'2 0.4 26.2
2016-Jun-23 02:18N 27°30' W 049°08'0 0.2 26.2
2016-Jun-23 01:28N 27°30' W 049°08'0 0.7 26.2
2016-Jun-23 00:43N 27°30' W 049°08'0 0.0 26.2
2016-Jun-23 00:39N 27°30' W 049°08'1 0.6 26.2
2016-Jun-22 23:01N 27°31' W 049°09'0 3.5 26.2
2016-Jun-22 22:54N 27°31' W 049°08'0 0.0
2016-Jun-22 22:45N 27°31' W 049°08'0 0.3 26.3
2016-Jun-22 21:09N 27°31' W 049°08'0 4.8 26.3
2016-Jun-22 21:07N 27°31' W 049°08'1 1.2 26.3
2016-Jun-22 20:19N 27°31' W 049°09'013.3 26.3
2016-Jun-22 20:17N 27°31' W 049°10'0 0.0 26.3
2016-Jun-22 19:27N 27°31' W 049°10'1 0.8 26.4
2016-Jun-22 18:16N 27°31' W 049°09'0 0.0 26.4
2016-Jun-22 16:42N 27°31' W 049°09'1 0.3 26.4
2016-Jun-22 15:00N 27°31' W 049°08'0 0.0 26.3
2016-Jun-22 14:19N 27°31' W 049°08'0 0.0 26.2
2016-Jun-22 14:14N 27°31' W 049°08'1 0.7 26.3
2016-Jun-22 13:25N 27°31' W 049°09'0 0.4 26.2
2016-Jun-22 12:28N 27°31' W 049°08'0 0.1 26.2
2016-Jun-22 11:26N 27°31' W 049°08'0 0.1 26.2
2016-Jun-22 10:43N 27°31' W 049°08'1 0.5 26.2
2016-Jun-22 09:44N 27°31' W 049°08'0 2.9 26.2
2016-Jun-22 09:39N 27°30' W 049°08'0 0.0 26.2
2016-Jun-22 08:54N 27°30' W 049°08'0 0.0 26.2
2016-Jun-22 08:08N 27°30' W 049°08'0 0.2 26.2
2016-Jun-22 07:00N 27°31' W 049°07'0 3.1 26.2
2016-Jun-22 06:53N 27°31' W 049°07'1 0.2 26.2
2016-Jun-22 01:52N 27°32' W 049°06'0 3.7 26.2
2016-Jun-22 01:48N 27°32' W 049°06'   26.2

Dump ship's entire track history